createdAt,value
2022-10-15T00:00:51.739Z,12.02
2022-10-15T00:03:19.655Z,12.13
2022-10-15T00:05:47.681Z,12.23
2022-10-15T00:08:15.678Z,12.25
2022-10-15T00:10:44.928Z,11.65
2022-10-15T00:13:12.901Z,12.48
2022-10-15T00:15:40.945Z,12.77
2022-10-15T00:18:08.779Z,12.55
2022-10-15T00:20:36.683Z,12.93
2022-10-15T00:23:04.600Z,13.07
2022-10-15T00:25:32.437Z,13.55
2022-10-15T00:28:01.759Z,12.98
2022-10-15T00:30:29.685Z,13.20
2022-10-15T00:32:57.508Z,12.55
2022-10-15T00:35:25.617Z,13.43
2022-10-15T00:37:53.635Z,13.60
2022-10-15T00:40:21.523Z,14.15
2022-10-15T00:42:49.531Z,13.35
2022-10-15T00:45:18.911Z,14.20
2022-10-15T00:47:49.929Z,14.73
2022-10-15T00:50:21.001Z,14.50
2022-10-15T00:53:01.326Z,14.63
2022-10-15T00:55:32.767Z,13.05
2022-10-15T00:58:03.895Z,13.85
2022-10-15T01:00:33.659Z,13.32
2022-10-15T01:03:01.664Z,14.45
2022-10-15T01:05:29.996Z,13.57
2022-10-15T01:07:58.300Z,13.07
2022-10-15T01:10:33.025Z,13.95
2022-10-15T01:13:12.089Z,12.45
2022-10-15T01:15:47.485Z,11.98
2022-10-15T01:18:21.641Z,12.15
2022-10-15T01:21:04.747Z,11.88
2022-10-15T01:24:15.388Z,10.27
2022-10-15T01:27:30.952Z,10.45
2022-10-15T01:30:24.969Z,10.23
2022-10-15T01:33:16.427Z,9.75
2022-10-15T01:35:50.670Z,10.68
2022-10-15T01:38:26.594Z,10.60
2022-10-15T01:40:59.142Z,9.85
2022-10-15T01:43:34.447Z,8.80
2022-10-15T01:46:08.557Z,10.02
2022-10-15T01:48:38.830Z,9.95
2022-10-15T01:51:08.390Z,8.98
2022-10-15T01:53:38.117Z,9.80
2022-10-15T01:56:10.305Z,10.32
2022-10-15T01:58:42.110Z,9.70
2022-10-15T02:01:11.823Z,10.05
2022-10-15T02:03:47.929Z,10.38
2022-10-15T02:06:21.193Z,10.05
2022-10-15T02:09:01.436Z,9.40
2022-10-15T02:11:32.768Z,9.73
2022-10-15T02:14:04.994Z,9.15
2022-10-15T02:16:41.701Z,9.48
2022-10-15T02:19:16.782Z,9.30
2022-10-15T02:21:48.476Z,10.40
2022-10-15T02:24:21.560Z,9.30
2022-10-15T02:26:50.944Z,9.32
2022-10-15T02:29:22.614Z,9.60
2022-10-15T02:31:54.521Z,9.07
2022-10-15T02:34:26.819Z,9.10
2022-10-15T02:36:56.329Z,9.18
2022-10-15T02:39:25.846Z,8.55
2022-10-15T02:41:55.208Z,9.68
2022-10-15T02:44:23.258Z,9.45
2022-10-15T02:46:52.682Z,9.45
2022-10-15T02:49:21.042Z,9.65
2022-10-15T02:51:48.948Z,10.18
2022-10-15T02:54:17.133Z,9.93
2022-10-15T02:56:45.141Z,10.30
2022-10-15T02:59:13.041Z,8.73
2022-10-15T03:01:41.272Z,9.13
2022-10-15T03:04:10.569Z,9.77
2022-10-15T03:06:38.597Z,8.77
2022-10-15T03:09:06.513Z,8.57
2022-10-15T03:11:34.654Z,7.95
2022-10-15T03:14:02.517Z,7.32
2022-10-15T03:16:30.940Z,6.97
2022-10-15T03:18:58.912Z,7.35
2022-10-15T03:21:31.002Z,6.40
2022-10-15T03:23:58.932Z,6.40
2022-10-15T03:26:27.000Z,7.03
2022-10-15T03:28:54.888Z,7.32
2022-10-15T03:31:22.824Z,6.47
2022-10-15T03:33:50.864Z,6.43
2022-10-15T03:36:18.853Z,6.90
2022-10-15T03:38:48.448Z,6.47
2022-10-15T03:41:16.444Z,6.15
2022-10-15T03:43:44.246Z,6.03
2022-10-15T03:46:12.205Z,6.20
2022-10-15T03:48:40.133Z,5.90
2022-10-15T03:51:08.006Z,5.57
2022-10-15T03:53:35.890Z,5.57
2022-10-15T03:56:08.751Z,5.82
2022-10-15T03:58:36.664Z,5.68
2022-10-15T04:01:10.146Z,5.93
2022-10-15T04:03:38.380Z,5.45
2022-10-15T04:06:06.992Z,5.90
2022-10-15T04:08:35.207Z,5.60
2022-10-15T04:11:03.169Z,5.57
2022-10-15T04:13:32.474Z,6.35
2022-10-15T04:16:00.538Z,5.78
2022-10-15T04:18:28.432Z,7.25
2022-10-15T04:20:59.516Z,6.88
2022-10-15T04:23:27.416Z,6.70
2022-10-15T04:25:56.537Z,6.43
2022-10-15T04:28:24.381Z,6.78
2022-10-15T04:30:57.588Z,7.50
2022-10-15T04:33:25.539Z,6.97
2022-10-15T04:36:01.222Z,7.75
2022-10-15T04:38:29.453Z,9.73
2022-10-15T04:41:02.923Z,10.90
2022-10-15T04:43:30.904Z,10.60
2022-10-15T04:46:01.833Z,11.30
2022-10-15T04:48:31.183Z,12.65
2022-10-15T04:51:05.107Z,12.07
2022-10-15T04:53:33.459Z,12.50
2022-10-15T04:56:03.380Z,12.50
2022-10-15T04:58:32.517Z,14.55
2022-10-15T05:01:02.880Z,13.20
2022-10-15T05:06:06.416Z,14.07
2022-10-15T05:08:35.530Z,14.10
2022-10-15T05:11:04.510Z,13.48
2022-10-15T05:13:33.806Z,15.45
2022-10-15T05:16:13.133Z,16.15
2022-10-15T05:18:41.788Z,16.98
2022-10-15T05:21:10.129Z,17.98
2022-10-15T05:23:38.893Z,18.77
2022-10-15T05:26:09.413Z,17.42
2022-10-15T05:28:37.653Z,19.50
2022-10-15T05:31:07.363Z,20.35
2022-10-15T05:33:36.796Z,20.67
2022-10-15T05:36:12.443Z,19.90
2022-10-15T05:38:40.675Z,20.88
2022-10-15T05:41:08.772Z,20.52
2022-10-15T05:43:40.326Z,20.55
2022-10-15T05:46:10.465Z,21.15
2022-10-15T05:48:39.700Z,20.00
2022-10-15T05:51:09.489Z,21.20
2022-10-15T05:53:38.259Z,21.63
2022-10-15T05:56:06.820Z,21.55
2022-10-15T05:58:37.429Z,24.02
2022-10-15T06:01:08.019Z,22.52
2022-10-15T06:03:36.287Z,24.88
2022-10-15T06:06:05.973Z,25.13
2022-10-15T06:08:34.277Z,24.73
2022-10-15T06:11:08.541Z,24.08
2022-10-15T06:13:39.378Z,25.02
2022-10-15T06:16:07.763Z,25.73
2022-10-15T06:18:35.954Z,25.83
2022-10-15T06:21:06.438Z,24.40
2022-10-15T06:23:34.933Z,24.83
2022-10-15T06:26:04.273Z,23.85
2022-10-15T06:28:32.554Z,23.55
2022-10-15T06:31:00.965Z,23.50
2022-10-15T06:33:29.736Z,24.70
2022-10-15T06:36:02.649Z,25.38
2022-10-15T06:38:32.467Z,25.10
2022-10-15T06:41:00.491Z,23.80
2022-10-15T06:43:31.013Z,23.75
2022-10-15T06:46:01.427Z,25.58
2022-10-15T06:48:29.397Z,23.02
2022-10-15T06:50:59.129Z,24.05
2022-10-15T06:53:27.118Z,23.73
2022-10-15T06:55:59.307Z,23.83
2022-10-15T06:58:27.678Z,23.55
2022-10-15T07:01:01.278Z,22.52
2022-10-15T07:03:29.310Z,21.88
2022-10-15T07:05:57.731Z,21.50
2022-10-15T07:08:26.806Z,21.80
2022-10-15T07:10:54.719Z,20.30
2022-10-15T07:13:24.199Z,19.17
2022-10-15T07:15:54.212Z,19.50
2022-10-15T07:18:22.088Z,20.27
2022-10-15T07:20:50.182Z,19.00
2022-10-15T07:23:18.130Z,19.52
2022-10-15T07:25:45.996Z,18.58
2022-10-15T07:28:13.928Z,18.27
2022-10-15T07:30:43.264Z,17.40
2022-10-15T07:33:11.629Z,17.67
2022-10-15T07:35:39.736Z,18.00
2022-10-15T07:38:07.705Z,16.73
2022-10-15T07:40:35.509Z,17.80
2022-10-15T07:43:03.536Z,18.35
2022-10-15T07:45:31.693Z,17.77
2022-10-15T07:48:00.949Z,18.02
2022-10-15T07:50:32.269Z,17.80
2022-10-15T07:53:03.458Z,18.67
2022-10-15T07:55:31.474Z,19.02
2022-10-15T07:57:59.691Z,18.13
2022-10-15T08:00:28.138Z,18.30
2022-10-15T08:02:56.073Z,18.17
2022-10-15T08:05:25.548Z,18.15
2022-10-15T08:07:53.523Z,17.70
2022-10-15T08:10:21.496Z,16.60
2022-10-15T08:12:49.408Z,17.20
2022-10-15T08:15:17.868Z,16.10
2022-10-15T08:17:46.027Z,15.50
2022-10-15T08:20:14.359Z,15.68
2022-10-15T08:22:43.699Z,16.63
2022-10-15T08:25:11.767Z,16.85
2022-10-15T08:27:39.615Z,16.73
2022-10-15T08:30:08.544Z,16.85
2022-10-15T08:32:36.441Z,17.38
2022-10-15T08:35:04.389Z,16.73
2022-10-15T08:37:32.394Z,16.50
2022-10-15T08:40:01.750Z,16.48
2022-10-15T08:42:33.636Z,16.23
2022-10-15T08:45:05.645Z,16.08
2022-10-15T08:47:39.568Z,16.95
2022-10-15T08:50:18.622Z,16.52
2022-10-15T08:52:49.933Z,15.95
2022-10-15T08:55:21.870Z,15.88
2022-10-15T08:57:57.603Z,16.58
2022-10-15T09:00:29.869Z,15.82
2022-10-15T09:03:03.577Z,15.98
2022-10-15T09:05:40.015Z,16.00
2022-10-15T09:08:16.394Z,15.55
2022-10-15T09:10:51.237Z,16.60
2022-10-15T09:13:26.700Z,15.63
2022-10-15T09:16:00.303Z,15.57
2022-10-15T09:18:33.045Z,16.30
2022-10-15T09:21:03.555Z,15.35
2022-10-15T09:23:35.040Z,15.30
2022-10-15T09:26:14.236Z,15.18
2022-10-15T09:28:51.089Z,14.93
2022-10-15T09:31:23.717Z,14.60
2022-10-15T09:33:55.595Z,14.63
2022-10-15T09:36:35.089Z,14.20
2022-10-15T09:39:12.827Z,14.90
2022-10-15T09:41:53.773Z,14.27
2022-10-15T09:44:25.898Z,13.80
2022-10-15T09:46:53.978Z,14.23
2022-10-15T09:49:25.624Z,13.20
2022-10-15T09:52:03.752Z,13.35
2022-10-15T09:54:44.026Z,14.18
2022-10-15T09:57:16.226Z,14.05
2022-10-15T09:59:54.083Z,14.45
2022-10-15T10:02:24.631Z,14.43
2022-10-15T10:04:53.099Z,13.38
2022-10-15T10:07:33.465Z,13.43
2022-10-15T10:10:05.113Z,13.80
2022-10-15T10:12:36.541Z,14.18
2022-10-15T10:15:09.836Z,13.10
2022-10-15T10:17:37.940Z,13.57
2022-10-15T10:20:18.048Z,14.93
2022-10-15T10:22:51.158Z,14.85
2022-10-15T10:25:40.253Z,15.45
2022-10-15T10:28:27.119Z,14.65
2022-10-15T10:31:03.835Z,15.27
2022-10-15T10:33:36.662Z,15.32
2022-10-15T10:36:06.424Z,16.80
2022-10-15T10:38:36.602Z,16.17
2022-10-15T10:41:08.709Z,17.38
2022-10-15T10:43:39.723Z,16.77
2022-10-15T10:46:18.616Z,17.33
2022-10-15T10:48:52.296Z,18.42
2022-10-15T10:51:23.335Z,17.55
2022-10-15T10:53:55.030Z,18.38
2022-10-15T10:56:25.729Z,18.38
2022-10-15T10:59:00.075Z,19.40
2022-10-15T11:01:29.282Z,18.48
2022-10-15T11:03:57.629Z,20.65
2022-10-15T11:06:45.910Z,19.95
2022-10-15T11:09:30.443Z,20.58
2022-10-15T11:12:11.866Z,21.15
2022-10-15T11:14:49.141Z,19.92
2022-10-15T11:17:28.724Z,22.67
2022-10-15T11:20:26.740Z,22.65
2022-10-15T11:23:02.756Z,23.73
2022-10-15T11:25:38.042Z,22.25
2022-10-15T11:28:21.135Z,22.75
2022-10-15T11:30:56.314Z,22.60
2022-10-15T11:33:35.193Z,22.83
2022-10-15T11:36:23.587Z,23.10
2022-10-15T11:38:58.430Z,22.83
2022-10-15T11:41:39.841Z,23.02
2022-10-15T11:44:33.646Z,22.85
2022-10-15T11:47:17.021Z,22.33
2022-10-15T11:49:56.899Z,20.63
2022-10-15T11:52:40.382Z,23.50
2022-10-15T11:55:15.426Z,20.60
2022-10-15T11:57:45.732Z,22.35
2022-10-15T12:00:29.769Z,21.60
2022-10-15T12:03:04.748Z,20.88
2022-10-15T12:05:37.165Z,20.38
2022-10-15T12:08:05.986Z,21.90
2022-10-15T12:10:50.631Z,21.00
2022-10-15T12:13:29.423Z,19.65
2022-10-15T12:16:09.486Z,21.80
2022-10-15T12:18:44.039Z,21.42
2022-10-15T12:21:37.037Z,20.38
2022-10-15T12:24:10.646Z,21.15
2022-10-15T12:26:39.185Z,20.58
2022-10-15T12:29:19.142Z,22.45
2022-10-15T12:31:49.667Z,22.35
2022-10-15T12:34:37.915Z,24.80
2022-10-15T12:37:09.522Z,24.38
2022-10-15T12:39:59.007Z,26.85
2022-10-15T12:42:29.799Z,25.88
2022-10-15T12:45:00.276Z,23.85
2022-10-15T12:47:48.346Z,27.38
2022-10-15T12:50:21.367Z,24.48
2022-10-15T12:53:01.501Z,24.58
2022-10-15T12:55:32.721Z,22.38
2022-10-15T12:58:42.367Z,23.35
2022-10-15T13:01:29.272Z,23.75
2022-10-15T13:03:59.602Z,22.92
2022-10-15T13:06:34.072Z,23.40
2022-10-15T13:09:25.134Z,23.23
2022-10-15T13:11:55.511Z,22.42
2022-10-15T13:14:31.457Z,22.60
2022-10-15T13:17:00.805Z,23.17
2022-10-15T13:19:31.429Z,22.75
2022-10-15T13:22:02.925Z,23.90
2022-10-15T13:24:40.385Z,23.73
2022-10-15T13:27:16.752Z,24.30
2022-10-15T13:29:56.386Z,24.52
2022-10-15T13:32:25.454Z,24.13
2022-10-15T13:34:53.824Z,24.50
2022-10-15T13:37:30.720Z,25.83
2022-10-15T13:40:01.879Z,24.88
2022-10-15T13:42:34.675Z,25.02
2022-10-15T13:45:04.638Z,25.48
2022-10-15T13:47:34.314Z,23.48
2022-10-15T13:50:20.030Z,23.85
2022-10-15T13:52:53.494Z,23.65
2022-10-15T13:55:24.482Z,23.20
2022-10-15T13:57:57.609Z,22.30
2022-10-15T14:00:29.151Z,21.48
2022-10-15T14:03:25.053Z,22.23
2022-10-15T14:05:54.884Z,20.83
2022-10-15T14:08:26.912Z,22.45
2022-10-15T14:10:58.304Z,23.02
2022-10-15T14:13:27.069Z,22.63
2022-10-15T14:18:38.769Z,21.55
2022-10-15T14:21:12.704Z,23.45
2022-10-15T14:23:44.273Z,23.67
2022-10-15T14:26:14.142Z,22.35
2022-10-15T14:28:44.343Z,24.02
2022-10-15T14:31:32.033Z,23.90
2022-10-15T14:33:59.867Z,23.80
2022-10-15T14:36:31.532Z,24.60
2022-10-15T14:39:34.894Z,26.67
2022-10-15T14:42:06.154Z,26.02
2022-10-15T14:44:46.793Z,24.73
2022-10-15T14:47:23.816Z,24.50
2022-10-15T14:49:55.193Z,24.38
2022-10-15T14:52:23.950Z,25.85
2022-10-15T14:55:03.001Z,24.92
2022-10-15T14:57:37.557Z,26.88
2022-10-15T15:00:07.417Z,25.88
2022-10-15T15:02:35.452Z,27.63
2022-10-15T15:05:10.565Z,26.48
2022-10-15T15:07:38.842Z,27.55
2022-10-15T15:10:08.258Z,27.05
2022-10-15T15:12:40.509Z,28.42
2022-10-15T15:15:15.069Z,27.77
2022-10-15T15:17:43.490Z,29.50
2022-10-15T15:20:12.600Z,31.33
2022-10-15T15:22:42.033Z,30.77
2022-10-15T15:25:16.908Z,28.30
2022-10-15T15:27:46.204Z,30.58
2022-10-15T15:30:18.395Z,30.52
2022-10-15T15:32:46.639Z,31.63
2022-10-15T15:35:21.580Z,31.40
2022-10-15T15:37:49.478Z,30.92
2022-10-15T15:40:17.575Z,31.42
2022-10-15T15:42:49.209Z,29.58
2022-10-15T15:45:22.547Z,31.55
2022-10-15T15:47:51.590Z,29.73
2022-10-15T15:50:21.001Z,29.98
2022-10-15T15:52:49.456Z,30.75
2022-10-15T15:55:17.993Z,31.02
2022-10-15T15:57:47.378Z,30.17
2022-10-15T16:00:16.213Z,29.45
2022-10-15T16:02:44.502Z,30.13
2022-10-15T16:05:15.053Z,30.83
2022-10-15T16:07:43.118Z,29.33
2022-10-15T16:10:12.762Z,30.52
2022-10-15T16:12:40.656Z,30.58
2022-10-15T16:15:14.567Z,30.52
2022-10-15T16:17:43.778Z,30.60
2022-10-15T16:20:13.201Z,29.80
2022-10-15T16:22:41.055Z,38.03
2022-10-15T16:25:10.193Z,29.73
2022-10-15T16:27:38.034Z,30.25
2022-10-15T16:30:06.855Z,29.58
2022-10-15T16:32:36.221Z,30.73
2022-10-15T16:35:04.213Z,29.58
2022-10-15T16:37:32.048Z,30.48
2022-10-15T16:40:00.183Z,31.27
2022-10-15T16:42:28.032Z,31.08
2022-10-15T16:44:55.894Z,32.58
2022-10-15T16:47:24.292Z,30.75
2022-10-15T16:49:55.228Z,31.65
2022-10-15T16:52:23.366Z,31.95
2022-10-15T16:54:51.706Z,32.85
2022-10-15T16:57:19.533Z,32.75
2022-10-15T16:59:47.368Z,33.22
2022-10-15T17:02:15.633Z,33.40
2022-10-15T17:04:43.534Z,33.10
2022-10-15T17:07:12.748Z,35.97
2022-10-15T17:09:40.845Z,34.63
2022-10-15T17:12:08.745Z,33.83
2022-10-15T17:14:36.957Z,34.70
2022-10-15T17:17:05.293Z,33.85
2022-10-15T17:19:34.256Z,35.03
2022-10-15T17:22:02.315Z,34.05
2022-10-15T17:24:31.737Z,33.30
2022-10-15T17:26:59.533Z,35.25
2022-10-15T17:29:30.713Z,35.97
2022-10-15T17:32:02.244Z,35.25
2022-10-15T17:34:30.151Z,36.45
2022-10-15T17:36:58.033Z,35.50
2022-10-15T17:39:26.175Z,35.58
2022-10-15T17:41:55.695Z,35.35
2022-10-15T17:44:23.513Z,35.90
2022-10-15T17:46:52.840Z,35.03
2022-10-15T17:49:20.928Z,35.80
2022-10-15T17:51:48.764Z,35.25
2022-10-15T17:54:17.038Z,34.22
2022-10-15T17:56:44.889Z,33.15
2022-10-15T17:59:14.222Z,33.15
2022-10-15T18:02:00.736Z,33.65
2022-10-15T18:04:29.346Z,32.70
2022-10-15T18:06:58.164Z,31.17
2022-10-15T18:09:26.535Z,33.95
2022-10-15T18:11:54.638Z,32.22
2022-10-15T18:14:23.956Z,32.35
2022-10-15T18:16:51.760Z,31.23
2022-10-15T18:19:19.777Z,33.42
2022-10-15T18:21:49.602Z,32.22
2022-10-15T18:24:21.758Z,33.00
2022-10-15T18:26:50.593Z,32.72
2022-10-15T18:29:18.655Z,32.20
2022-10-15T18:31:48.902Z,33.95
2022-10-15T18:34:19.236Z,34.33
2022-10-15T18:36:47.067Z,31.90
2022-10-15T18:39:14.961Z,32.92
2022-10-15T18:44:16.004Z,33.50
2022-10-15T18:46:45.188Z,34.58
2022-10-15T18:49:16.078Z,35.55
2022-10-15T18:51:46.428Z,34.47
2022-10-15T18:54:14.876Z,36.72
2022-10-15T18:56:42.739Z,33.65
2022-10-15T18:59:10.684Z,35.85
2022-10-15T19:01:41.728Z,35.08
2022-10-15T19:04:12.316Z,35.25
2022-10-15T19:06:43.165Z,34.17
2022-10-15T19:09:14.029Z,35.90
2022-10-15T19:11:43.939Z,34.83
2022-10-15T19:14:12.422Z,34.88
2022-10-15T19:16:40.533Z,34.28
2022-10-15T19:19:09.037Z,34.33
2022-10-15T19:21:37.688Z,33.67
2022-10-15T19:24:07.426Z,34.90
2022-10-15T19:26:36.030Z,35.22
2022-10-15T19:29:05.172Z,34.95
2022-10-15T19:31:35.055Z,33.58
2022-10-15T19:34:03.274Z,32.80
2022-10-15T19:36:33.282Z,35.50
2022-10-15T19:39:02.583Z,34.50
2022-10-15T19:41:31.953Z,35.53
2022-10-15T19:43:59.856Z,33.42
2022-10-15T19:46:29.361Z,33.45
2022-10-15T19:48:57.356Z,32.30
2022-10-15T19:51:25.203Z,32.40
2022-10-15T19:53:54.552Z,35.42
2022-10-15T19:56:22.592Z,34.92
2022-10-15T19:58:57.146Z,33.92
2022-10-15T20:01:25.309Z,35.60
2022-10-15T20:03:53.693Z,36.05
2022-10-15T20:06:22.307Z,35.47
2022-10-15T20:08:50.413Z,34.53
2022-10-15T20:11:19.037Z,34.22
2022-10-15T20:13:47.343Z,35.58
2022-10-15T20:16:18.471Z,35.28
2022-10-15T20:18:48.963Z,34.58
2022-10-15T20:21:17.435Z,33.22
2022-10-15T20:23:47.767Z,34.05
2022-10-15T20:26:17.202Z,33.45
2022-10-15T20:28:46.400Z,33.55
2022-10-15T20:31:20.690Z,34.20
2022-10-15T20:33:49.002Z,34.80
2022-10-15T20:36:23.457Z,35.35
2022-10-15T20:38:52.638Z,35.13
2022-10-15T20:41:21.609Z,35.33
2022-10-15T20:43:54.916Z,34.78
2022-10-15T20:46:28.364Z,35.55
2022-10-15T20:48:58.221Z,34.60
2022-10-15T20:51:28.687Z,34.10
2022-10-15T20:53:58.638Z,36.20
2022-10-15T20:56:26.725Z,37.50
2022-10-15T20:58:54.601Z,35.40
2022-10-15T21:01:24.027Z,37.97
2022-10-15T21:03:51.950Z,35.55
2022-10-15T21:06:20.702Z,37.63
2022-10-15T21:08:48.782Z,38.28
2022-10-15T21:11:17.055Z,39.13
2022-10-15T21:13:45.067Z,37.47
2022-10-15T21:16:13.029Z,38.13
2022-10-15T21:18:42.497Z,36.63
2022-10-15T21:21:12.965Z,36.25
2022-10-15T21:23:42.837Z,36.10
2022-10-15T21:26:12.758Z,35.75
2022-10-15T21:28:40.955Z,37.92
2022-10-15T21:31:10.961Z,33.15
2022-10-15T21:33:39.461Z,36.63
2022-10-15T21:36:13.184Z,33.97
2022-10-15T21:38:41.753Z,35.42
2022-10-15T21:41:10.055Z,33.10
2022-10-15T21:43:38.175Z,33.95
2022-10-15T21:46:08.194Z,34.28
2022-10-15T21:48:37.610Z,34.13
2022-10-15T21:51:06.510Z,33.45
2022-10-15T21:53:37.507Z,32.33
2022-10-15T21:56:08.017Z,32.03
2022-10-15T21:58:36.662Z,33.38
2022-10-15T22:01:14.513Z,33.63
2022-10-15T22:03:45.897Z,32.35
2022-10-15T22:06:14.665Z,32.10
2022-10-15T22:08:44.250Z,31.10
2022-10-15T22:11:14.650Z,32.63
2022-10-15T22:13:45.007Z,32.38
2022-10-15T22:16:14.023Z,32.58
2022-10-15T22:18:42.566Z,32.60
2022-10-15T22:21:15.579Z,31.13
2022-10-15T22:23:46.532Z,31.70
2022-10-15T22:26:15.794Z,31.17
2022-10-15T22:28:44.953Z,32.13
2022-10-15T22:31:15.408Z,29.88
2022-10-15T22:33:47.018Z,30.63
2022-10-15T22:36:17.758Z,30.83
2022-10-15T22:38:49.195Z,29.88
2022-10-15T22:41:17.451Z,29.17
2022-10-15T22:43:45.630Z,29.40
2022-10-15T22:46:14.200Z,28.80
2022-10-15T22:48:43.183Z,29.27
2022-10-15T22:51:13.911Z,28.35
2022-10-15T22:53:41.940Z,27.83
2022-10-15T22:56:13.803Z,27.80
2022-10-15T22:58:42.126Z,27.98
2022-10-15T23:01:12.834Z,27.05
2022-10-15T23:03:41.701Z,25.52
2022-10-15T23:06:10.038Z,24.85
2022-10-15T23:08:38.563Z,24.88
2022-10-15T23:11:09.619Z,22.63
2022-10-15T23:13:40.606Z,23.83
2022-10-15T23:16:11.989Z,23.05
2022-10-15T23:18:39.979Z,21.58
2022-10-15T23:21:12.974Z,21.95
2022-10-15T23:23:40.878Z,21.48
2022-10-15T23:26:09.988Z,20.83
2022-10-15T23:28:39.966Z,21.55
2022-10-15T23:31:08.449Z,20.23
2022-10-15T23:33:36.242Z,21.25
2022-10-15T23:36:06.323Z,19.85
2022-10-15T23:38:34.385Z,19.70
2022-10-15T23:41:03.243Z,19.40
2022-10-15T23:43:31.565Z,20.45
2022-10-15T23:46:01.058Z,20.20
2022-10-15T23:48:29.544Z,20.75
2022-10-15T23:51:02.414Z,19.40
2022-10-15T23:53:33.015Z,17.88
2022-10-15T23:56:03.047Z,17.90
2022-10-15T23:58:32.230Z,18.00
